sensor_id;sensor_type;location;lat;lon;timestamp;pressure;altitude;pressure_sealevel;temperature;humidity
58385;BME280;44185;47.844;8.966;2023-07-13T00:02:25;96230.88;;;18.03;100.00
58385;BME280;44185;47.844;8.966;2023-07-13T00:04:50;96229.66;;;18.06;100.00
58385;BME280;44185;47.844;8.966;2023-07-13T00:07:16;96234.03;;;18.07;100.00
58385;BME280;44185;47.844;8.966;2023-07-13T00:09:43;96237.53;;;18.07;100.00
58385;BME280;44185;47.844;8.966;2023-07-13T00:12:24;96229.22;;;18.02;100.00
58385;BME280;44185;47.844;8.966;2023-07-13T00:14:50;96230.63;;;17.89;100.00
58385;BME280;44185;47.844;8.966;2023-07-13T00:17:16;96219.38;;;17.94;100.00
58385;BME280;44185;47.844;8.966;2023-07-13T00:19:41;96229.44;;;17.92;100.00
58385;BME280;44185;47.844;8.966;2023-07-13T00:22:07;96221.41;;;17.92;100.00
58385;BME280;44185;47.844;8.966;2023-07-13T00:24:32;96229.56;;;17.99;100.00
58385;BME280;44185;47.844;8.966;2023-07-13T00:26:58;96223.72;;;17.95;100.00
58385;BME280;44185;47.844;8.966;2023-07-13T00:29:25;96222.34;;;17.99;100.00
58385;BME280;44185;47.844;8.966;2023-07-13T00:31:51;96225.88;;;18.00;100.00
58385;BME280;44185;47.844;8.966;2023-07-13T00:34:16;96227.53;;;18.01;100.00
58385;BME280;44185;47.844;8.966;2023-07-13T00:36:42;96219.88;;;17.98;100.00
58385;BME280;44185;47.844;8.966;2023-07-13T00:39:13;96213.16;;;18.02;100.00
58385;BME280;44185;47.844;8.966;2023-07-13T00:41:39;96223.19;;;18.00;100.00
58385;BME280;44185;47.844;8.966;2023-07-13T00:44:04;96213.66;;;17.97;100.00
58385;BME280;44185;47.844;8.966;2023-07-13T00:46:33;96212.53;;;17.92;100.00
58385;BME280;44185;47.844;8.966;2023-07-13T00:49:01;96216.78;;;17.86;100.00
58385;BME280;44185;47.844;8.966;2023-07-13T00:51:33;96221.38;;;17.77;100.00
58385;BME280;44185;47.844;8.966;2023-07-13T00:54:03;96224.94;;;17.69;100.00
58385;BME280;44185;47.844;8.966;2023-07-13T00:56:31;96227.25;;;17.72;100.00
58385;BME280;44185;47.844;8.966;2023-07-13T00:58:59;96215.38;;;17.75;100.00
58385;BME280;44185;47.844;8.966;2023-07-13T01:01:25;96223.84;;;17.78;100.00
58385;BME280;44185;47.844;8.966;2023-07-13T01:03:52;96220.06;;;17.73;100.00
58385;BME280;44185;47.844;8.966;2023-07-13T01:06:17;96217.56;;;17.71;100.00
58385;BME280;44185;47.844;8.966;2023-07-13T01:08:43;96213.63;;;17.59;100.00
58385;BME280;44185;47.844;8.966;2023-07-13T01:11:08;96213.75;;;17.65;100.00
58385;BME280;44185;47.844;8.966;2023-07-13T01:13:34;96214.13;;;17.62;100.00
58385;BME280;44185;47.844;8.966;2023-07-13T01:16:03;96215.91;;;17.70;100.00
58385;BME280;44185;47.844;8.966;2023-07-13T01:18:30;96216.56;;;17.72;100.00
58385;BME280;44185;47.844;8.966;2023-07-13T01:20:59;96214.59;;;17.66;100.00
58385;BME280;44185;47.844;8.966;2023-07-13T01:23:27;96215.16;;;17.53;100.00
58385;BME280;44185;47.844;8.966;2023-07-13T01:25:53;96217.25;;;17.42;100.00
58385;BME280;44185;47.844;8.966;2023-07-13T01:28:19;96225.28;;;17.42;100.00
58385;BME280;44185;47.844;8.966;2023-07-13T01:30:45;96222.63;;;17.34;100.00
58385;BME280;44185;47.844;8.966;2023-07-13T01:33:12;96226.38;;;17.25;100.00
58385;BME280;44185;47.844;8.966;2023-07-13T01:35:38;96231.72;;;17.25;100.00
58385;BME280;44185;47.844;8.966;2023-07-13T01:38:06;96228.53;;;17.29;100.00
58385;BME280;44185;47.844;8.966;2023-07-13T01:40:31;96229.41;;;17.13;100.00
58385;BME280;44185;47.844;8.966;2023-07-13T01:42:57;96226.75;;;17.05;100.00
58385;BME280;44185;47.844;8.966;2023-07-13T01:45:23;96227.91;;;17.10;100.00
58385;BME280;44185;47.844;8.966;2023-07-13T01:47:51;96220.06;;;17.09;100.00
58385;BME280;44185;47.844;8.966;2023-07-13T01:50:16;96210.69;;;17.13;100.00
58385;BME280;44185;47.844;8.966;2023-07-13T01:52:45;96212.88;;;17.09;100.00
58385;BME280;44185;47.844;8.966;2023-07-13T01:55:11;96209.53;;;17.07;100.00
58385;BME280;44185;47.844;8.966;2023-07-13T01:57:39;96198.69;;;17.09;100.00
58385;BME280;44185;47.844;8.966;2023-07-13T02:00:09;96199.50;;;17.09;100.00
58385;BME280;44185;47.844;8.966;2023-07-13T02:02:35;96195.81;;;17.10;100.00
58385;BME280;44185;47.844;8.966;2023-07-13T02:05:00;96205.34;;;17.13;100.00
58385;BME280;44185;47.844;8.966;2023-07-13T02:07:26;96203.66;;;17.20;100.00
58385;BME280;44185;47.844;8.966;2023-07-13T02:09:51;96193.50;;;17.07;100.00
58385;BME280;44185;47.844;8.966;2023-07-13T02:12:18;96200.03;;;17.05;100.00
58385;BME280;44185;47.844;8.966;2023-07-13T02:14:44;96208.56;;;17.00;100.00
58385;BME280;44185;47.844;8.966;2023-07-13T02:17:10;96207.22;;;17.04;100.00
58385;BME280;44185;47.844;8.966;2023-07-13T02:19:35;96215.75;;;16.99;100.00
58385;BME280;44185;47.844;8.966;2023-07-13T02:22:01;96217.16;;;16.87;100.00
58385;BME280;44185;47.844;8.966;2023-07-13T02:24:26;96219.16;;;16.85;100.00
58385;BME280;44185;47.844;8.966;2023-07-13T02:26:52;96224.53;;;16.76;100.00
58385;BME280;44185;47.844;8.966;2023-07-13T02:29:21;96222.19;;;16.82;100.00
58385;BME280;44185;47.844;8.966;2023-07-13T02:31:46;96216.00;;;16.81;100.00
58385;BME280;44185;47.844;8.966;2023-07-13T02:34:12;96223.00;;;16.90;100.00
58385;BME280;44185;47.844;8.966;2023-07-13T02:36:38;96220.31;;;16.90;100.00
58385;BME280;44185;47.844;8.966;2023-07-13T02:39:04;96213.91;;;17.00;100.00
58385;BME280;44185;47.844;8.966;2023-07-13T02:41:30;96211.75;;;17.04;100.00
58385;BME280;44185;47.844;8.966;2023-07-13T02:43:57;96209.41;;;17.00;100.00
58385;BME280;44185;47.844;8.966;2023-07-13T02:46:24;96217.56;;;17.07;100.00
58385;BME280;44185;47.844;8.966;2023-07-13T02:48:49;96214.03;;;17.07;100.00
58385;BME280;44185;47.844;8.966;2023-07-13T02:51:15;96215.75;;;16.99;100.00
58385;BME280;44185;47.844;8.966;2023-07-13T02:53:40;96211.25;;;17.00;100.00
58385;BME280;44185;47.844;8.966;2023-07-13T02:56:06;96205.59;;;16.95;100.00
58385;BME280;44185;47.844;8.966;2023-07-13T02:58:31;96204.41;;;16.97;100.00
58385;BME280;44185;47.844;8.966;2023-07-13T03:00:57;96213.25;;;16.98;100.00
58385;BME280;44185;47.844;8.966;2023-07-13T03:03:24;96215.94;;;16.98;100.00
58385;BME280;44185;47.844;8.966;2023-07-13T03:05:58;96219.25;;;17.00;100.00
58385;BME280;44185;47.844;8.966;2023-07-13T03:08:25;96218.09;;;17.03;100.00
58385;BME280;44185;47.844;8.966;2023-07-13T03:10:59;96216.63;;;16.92;100.00
58385;BME280;44185;47.844;8.966;2023-07-13T03:13:24;96214.13;;;16.90;100.00
58385;BME280;44185;47.844;8.966;2023-07-13T03:15:50;96219.13;;;16.93;100.00
58385;BME280;44185;47.844;8.966;2023-07-13T03:18:15;96213.09;;;16.91;100.00
58385;BME280;44185;47.844;8.966;2023-07-13T03:20:42;96216.16;;;16.88;100.00
58385;BME280;44185;47.844;8.966;2023-07-13T03:23:08;96220.25;;;16.99;100.00
58385;BME280;44185;47.844;8.966;2023-07-13T03:25:33;96223.09;;;17.06;100.00
58385;BME280;44185;47.844;8.966;2023-07-13T03:27:58;96229.47;;;16.96;100.00
58385;BME280;44185;47.844;8.966;2023-07-13T03:30:24;96228.28;;;16.99;100.00
58385;BME280;44185;47.844;8.966;2023-07-13T03:32:49;96224.91;;;17.05;100.00
58385;BME280;44185;47.844;8.966;2023-07-13T03:35:15;96229.09;;;17.08;100.00
58385;BME280;44185;47.844;8.966;2023-07-13T03:37:42;96231.00;;;16.90;100.00
58385;BME280;44185;47.844;8.966;2023-07-13T03:40:08;96234.88;;;16.88;100.00
58385;BME280;44185;47.844;8.966;2023-07-13T03:42:34;96238.53;;;16.87;100.00
58385;BME280;44185;47.844;8.966;2023-07-13T03:44:59;96244.53;;;16.81;100.00
58385;BME280;44185;47.844;8.966;2023-07-13T03:47:25;96233.00;;;16.88;100.00
58385;BME280;44185;47.844;8.966;2023-07-13T03:49:50;96242.03;;;16.87;100.00
58385;BME280;44185;47.844;8.966;2023-07-13T03:52:15;96248.56;;;16.85;100.00
58385;BME280;44185;47.844;8.966;2023-07-13T03:54:42;96243.53;;;16.90;100.00
58385;BME280;44185;47.844;8.966;2023-07-13T03:57:08;96244.00;;;16.94;100.00
58385;BME280;44185;47.844;8.966;2023-07-13T03:59:34;96245.19;;;16.91;100.00
58385;BME280;44185;47.844;8.966;2023-07-13T04:02:00;96252.72;;;16.87;100.00
58385;BME280;44185;47.844;8.966;2023-07-13T04:04:25;96243.69;;;16.88;100.00
58385;BME280;44185;47.844;8.966;2023-07-13T04:06:51;96243.88;;;16.87;100.00
58385;BME280;44185;47.844;8.966;2023-07-13T04:09:16;96243.88;;;16.87;100.00
58385;BME280;44185;47.844;8.966;2023-07-13T04:11:43;96253.09;;;16.76;100.00
58385;BME280;44185;47.844;8.966;2023-07-13T04:14:08;96246.44;;;16.63;100.00
58385;BME280;44185;47.844;8.966;2023-07-13T04:16:34;96250.78;;;16.64;100.00
58385;BME280;44185;47.844;8.966;2023-07-13T04:18:59;96256.09;;;16.64;100.00
58385;BME280;44185;47.844;8.966;2023-07-13T04:21:25;96247.78;;;16.59;100.00
58385;BME280;44185;47.844;8.966;2023-07-13T04:23:51;96245.94;;;16.60;100.00
58385;BME280;44185;47.844;8.966;2023-07-13T04:26:16;96256.97;;;16.56;100.00
58385;BME280;44185;47.844;8.966;2023-07-13T04:28:43;96267.16;;;16.61;100.00
58385;BME280;44185;47.844;8.966;2023-07-13T04:31:09;96270.16;;;16.58;100.00
58385;BME280;44185;47.844;8.966;2023-07-13T04:33:34;96268.78;;;16.71;100.00
58385;BME280;44185;47.844;8.966;2023-07-13T04:35:59;96272.44;;;16.78;100.00
58385;BME280;44185;47.844;8.966;2023-07-13T04:38:27;96266.09;;;16.79;100.00
58385;BME280;44185;47.844;8.966;2023-07-13T04:40:55;96276.63;;;16.72;100.00
58385;BME280;44185;47.844;8.966;2023-07-13T04:43:20;96285.69;;;16.63;100.00
58385;BME280;44185;47.844;8.966;2023-07-13T04:45:47;96286.66;;;16.70;100.00
58385;BME280;44185;47.844;8.966;2023-07-13T04:48:13;96295.84;;;16.76;100.00
58385;BME280;44185;47.844;8.966;2023-07-13T04:50:38;96293.81;;;16.78;100.00
58385;BME280;44185;47.844;8.966;2023-07-13T04:53:04;96287.84;;;16.67;100.00
58385;BME280;44185;47.844;8.966;2023-07-13T04:55:30;96294.84;;;16.77;100.00
58385;BME280;44185;47.844;8.966;2023-07-13T04:57:56;96291.81;;;16.80;100.00
58385;BME280;44185;47.844;8.966;2023-07-13T05:00:22;96296.66;;;16.85;100.00
58385;BME280;44185;47.844;8.966;2023-07-13T05:02:48;96295.50;;;16.87;100.00
58385;BME280;44185;47.844;8.966;2023-07-13T05:05:14;96286.44;;;16.88;100.00
58385;BME280;44185;47.844;8.966;2023-07-13T05:07:39;96294.66;;;16.87;100.00
58385;BME280;44185;47.844;8.966;2023-07-13T05:10:06;96297.13;;;16.88;100.00
58385;BME280;44185;47.844;8.966;2023-07-13T05:12:31;96301.50;;;16.81;100.00
58385;BME280;44185;47.844;8.966;2023-07-13T05:14:57;96307.53;;;16.75;100.00
58385;BME280;44185;47.844;8.966;2023-07-13T05:17:23;96318.19;;;16.83;100.00
58385;BME280;44185;47.844;8.966;2023-07-13T05:19:49;96324.22;;;16.85;100.00
58385;BME280;44185;47.844;8.966;2023-07-13T05:22:15;96324.72;;;16.89;100.00
58385;BME280;44185;47.844;8.966;2023-07-13T05:24:40;96318.69;;;16.95;100.00
58385;BME280;44185;47.844;8.966;2023-07-13T05:27:06;96325.50;;;17.06;100.00
58385;BME280;44185;47.844;8.966;2023-07-13T05:29:31;96326.50;;;17.14;100.00
58385;BME280;44185;47.844;8.966;2023-07-13T05:31:57;96329.66;;;17.17;100.00
58385;BME280;44185;47.844;8.966;2023-07-13T05:34:23;96341.50;;;17.15;100.00
58385;BME280;44185;47.844;8.966;2023-07-13T05:36:49;96336.16;;;17.15;100.00
58385;BME280;44185;47.844;8.966;2023-07-13T05:39:15;96331.34;;;17.10;100.00
58385;BME280;44185;47.844;8.966;2023-07-13T05:41:40;96335.00;;;17.17;100.00
58385;BME280;44185;47.844;8.966;2023-07-13T05:44:06;96339.66;;;17.32;100.00
58385;BME280;44185;47.844;8.966;2023-07-13T05:46:31;96343.47;;;17.46;100.00
58385;BME280;44185;47.844;8.966;2023-07-13T05:48:57;96353.44;;;17.52;100.00
58385;BME280;44185;47.844;8.966;2023-07-13T05:51:23;96337.53;;;17.59;100.00
58385;BME280;44185;47.844;8.966;2023-07-13T05:53:49;96342.22;;;17.57;100.00
58385;BME280;44185;47.844;8.966;2023-07-13T05:56:15;96344.19;;;17.63;100.00
58385;BME280;44185;47.844;8.966;2023-07-13T05:58:40;96346.72;;;17.65;100.00
58385;BME280;44185;47.844;8.966;2023-07-13T06:01:08;96344.38;;;17.62;100.00
58385;BME280;44185;47.844;8.966;2023-07-13T06:03:35;96346.66;;;17.73;100.00
58385;BME280;44185;47.844;8.966;2023-07-13T06:06:00;96353.19;;;17.71;100.00
58385;BME280;44185;47.844;8.966;2023-07-13T06:08:26;96354.22;;;17.70;100.00
58385;BME280;44185;47.844;8.966;2023-07-13T06:10:53;96359.72;;;17.68;100.00
58385;BME280;44185;47.844;8.966;2023-07-13T06:13:18;96364.44;;;17.66;100.00
58385;BME280;44185;47.844;8.966;2023-07-13T06:15:47;96351.56;;;17.61;100.00
58385;BME280;44185;47.844;8.966;2023-07-13T06:18:13;96353.38;;;17.69;100.00
58385;BME280;44185;47.844;8.966;2023-07-13T06:20:38;96356.94;;;17.61;100.00
58385;BME280;44185;47.844;8.966;2023-07-13T06:23:04;96362.44;;;17.60;100.00
58385;BME280;44185;47.844;8.966;2023-07-13T06:25:29;96372.06;;;17.37;100.00
58385;BME280;44185;47.844;8.966;2023-07-13T06:27:56;96382.31;;;17.25;100.00
58385;BME280;44185;47.844;8.966;2023-07-13T06:30:21;96374.75;;;17.29;100.00
58385;BME280;44185;47.844;8.966;2023-07-13T06:32:47;96373.13;;;17.19;100.00
58385;BME280;44185;47.844;8.966;2023-07-13T06:35:12;96381.16;;;17.19;100.00
58385;BME280;44185;47.844;8.966;2023-07-13T06:37:38;96385.97;;;17.32;100.00
58385;BME280;44185;47.844;8.966;2023-07-13T06:40:04;96379.44;;;17.35;100.00
58385;BME280;44185;47.844;8.966;2023-07-13T06:42:30;96387.59;;;17.42;100.00
58385;BME280;44185;47.844;8.966;2023-07-13T06:44:57;96385.78;;;17.34;100.00
58385;BME280;44185;47.844;8.966;2023-07-13T06:47:23;96382.31;;;17.25;100.00
58385;BME280;44185;47.844;8.966;2023-07-13T06:49:48;96381.97;;;17.20;100.00
58385;BME280;44185;47.844;8.966;2023-07-13T06:52:13;96391.31;;;17.24;100.00
58385;BME280;44185;47.844;8.966;2023-07-13T06:54:39;96392.66;;;17.11;100.00
58385;BME280;44185;47.844;8.966;2023-07-13T06:57:05;96391.16;;;17.09;100.00
58385;BME280;44185;47.844;8.966;2023-07-13T06:59:30;96393.16;;;17.23;100.00
58385;BME280;44185;47.844;8.966;2023-07-13T07:01:57;96393.47;;;17.29;100.00
58385;BME280;44185;47.844;8.966;2023-07-13T07:04:23;96388.13;;;17.29;100.00
58385;BME280;44185;47.844;8.966;2023-07-13T07:06:48;96397.75;;;17.55;100.00
58385;BME280;44185;47.844;8.966;2023-07-13T07:09:13;96391.50;;;17.71;100.00
58385;BME280;44185;47.844;8.966;2023-07-13T07:11:39;96396.50;;;17.74;100.00
58385;BME280;44185;47.844;8.966;2023-07-13T07:14:04;96399.56;;;17.63;100.00
58385;BME280;44185;47.844;8.966;2023-07-13T07:16:30;96405.53;;;17.73;100.00
58385;BME280;44185;47.844;8.966;2023-07-13T07:18:57;96410.22;;;17.71;100.00
58385;BME280;44185;47.844;8.966;2023-07-13T07:21:23;96406.25;;;17.67;100.00
58385;BME280;44185;47.844;8.966;2023-07-13T07:23:48;96404.88;;;17.71;100.00
58385;BME280;44185;47.844;8.966;2023-07-13T07:26:14;96407.91;;;17.68;100.00
58385;BME280;44185;47.844;8.966;2023-07-13T07:28:40;96413.63;;;17.65;100.00
58385;BME280;44185;47.844;8.966;2023-07-13T07:31:05;96410.25;;;17.63;100.00
58385;BME280;44185;47.844;8.966;2023-07-13T07:33:32;96426.16;;;17.64;100.00
58385;BME280;44185;47.844;8.966;2023-07-13T07:35:59;96418.28;;;17.63;100.00
58385;BME280;44185;47.844;8.966;2023-07-13T07:38:24;96413.75;;;17.72;100.00
58385;BME280;44185;47.844;8.966;2023-07-13T07:40:49;96417.38;;;17.79;100.00
58385;BME280;44185;47.844;8.966;2023-07-13T07:43:15;96423.97;;;18.00;100.00
58385;BME280;44185;47.844;8.966;2023-07-13T07:45:40;96430.78;;;18.11;100.00
58385;BME280;44185;47.844;8.966;2023-07-13T07:48:06;96422.94;;;18.09;100.00
58385;BME280;44185;47.844;8.966;2023-07-13T07:50:32;96431.56;;;17.96;100.00
58385;BME280;44185;47.844;8.966;2023-07-13T07:52:59;96426.19;;;17.96;100.00
58385;BME280;44185;47.844;8.966;2023-07-13T07:55:25;96412.78;;;18.05;100.00
58385;BME280;44185;47.844;8.966;2023-07-13T07:57:50;96415.22;;;18.47;100.00
58385;BME280;44185;47.844;8.966;2023-07-13T08:00:16;96422.81;;;18.58;100.00
58385;BME280;44185;47.844;8.966;2023-07-13T08:02:43;96422.69;;;18.75;100.00
58385;BME280;44185;47.844;8.966;2023-07-13T08:05:08;96423.41;;;18.92;100.00
58385;BME280;44185;47.844;8.966;2023-07-13T08:07:34;96427.06;;;19.15;90.38
58385;BME280;44185;47.844;8.966;2023-07-13T08:10:01;96433.22;;;19.84;100.00
58385;BME280;44185;47.844;8.966;2023-07-13T08:12:26;96427.28;;;19.89;88.76
58385;BME280;44185;47.844;8.966;2023-07-13T08:14:53;96429.78;;;19.75;92.75
58385;BME280;44185;47.844;8.966;2023-07-13T08:17:18;96433.84;;;19.26;89.17
58385;BME280;44185;47.844;8.966;2023-07-13T08:19:44;96431.66;;;19.06;79.46
58385;BME280;44185;47.844;8.966;2023-07-13T08:22:09;96431.75;;;19.36;81.71
58385;BME280;44185;47.844;8.966;2023-07-13T08:24:34;96426.44;;;19.28;79.32
58385;BME280;44185;47.844;8.966;2023-07-13T08:27:01;96425.34;;;18.98;81.50
58385;BME280;44185;47.844;8.966;2023-07-13T08:29:27;96420.44;;;19.26;86.77
58385;BME280;44185;47.844;8.966;2023-07-13T08:31:53;96429.81;;;19.06;86.94
58385;BME280;44185;47.844;8.966;2023-07-13T08:34:18;96430.59;;;18.76;100.00
58385;BME280;44185;47.844;8.966;2023-07-13T08:36:43;96425.97;;;18.38;100.00
58385;BME280;44185;47.844;8.966;2023-07-13T08:39:09;96441.88;;;17.99;100.00
58385;BME280;44185;47.844;8.966;2023-07-13T08:41:35;96433.75;;;18.25;100.00
58385;BME280;44185;47.844;8.966;2023-07-13T08:44:03;96441.44;;;18.28;100.00
58385;BME280;44185;47.844;8.966;2023-07-13T08:46:32;96444.06;;;18.04;100.00
58385;BME280;44185;47.844;8.966;2023-07-13T08:49:02;96446.31;;;18.16;100.00
58385;BME280;44185;47.844;8.966;2023-07-13T08:51:37;96442.22;;;18.37;100.00
58385;BME280;44185;47.844;8.966;2023-07-13T08:54:10;96443.94;;;18.29;100.00
58385;BME280;44185;47.844;8.966;2023-07-13T08:56:39;96442.91;;;18.39;100.00
58385;BME280;44185;47.844;8.966;2023-07-13T08:59:13;96447.19;;;18.72;100.00
58385;BME280;44185;47.844;8.966;2023-07-13T09:01:47;96448.84;;;18.49;100.00
58385;BME280;44185;47.844;8.966;2023-07-13T09:04:19;96444.19;;;18.66;100.00
58385;BME280;44185;47.844;8.966;2023-07-13T09:07:00;96440.28;;;18.77;100.00
58385;BME280;44185;47.844;8.966;2023-07-13T09:09:44;96445.75;;;18.61;100.00
58385;BME280;44185;47.844;8.966;2023-07-13T09:12:17;96450.91;;;18.07;100.00
58385;BME280;44185;47.844;8.966;2023-07-13T09:14:47;96446.91;;;18.03;100.00
58385;BME280;44185;47.844;8.966;2023-07-13T09:17:17;96448.81;;;17.85;100.00
58385;BME280;44185;47.844;8.966;2023-07-13T09:19:46;96463.22;;;17.84;96.75
58385;BME280;44185;47.844;8.966;2023-07-13T09:22:13;96455.16;;;17.93;100.00
58385;BME280;44185;47.844;8.966;2023-07-13T09:24:50;96452.59;;;17.99;100.00
58385;BME280;44185;47.844;8.966;2023-07-13T09:27:19;96450.72;;;18.08;97.67
58385;BME280;44185;47.844;8.966;2023-07-13T09:29:49;96459.25;;;18.20;92.71
58385;BME280;44185;47.844;8.966;2023-07-13T09:32:18;96444.97;;;18.28;96.72
58385;BME280;44185;47.844;8.966;2023-07-13T09:34:50;96451.97;;;18.29;96.81
58385;BME280;44185;47.844;8.966;2023-07-13T09:37:15;96460.34;;;18.58;93.83
58385;BME280;44185;47.844;8.966;2023-07-13T09:39:42;96458.44;;;18.43;98.18
58385;BME280;44185;47.844;8.966;2023-07-13T09:42:14;96464.06;;;18.17;95.88
58385;BME280;44185;47.844;8.966;2023-07-13T09:44:53;96460.75;;;18.47;98.81
58385;BME280;44185;47.844;8.966;2023-07-13T09:47:21;96457.00;;;18.32;96.49
58385;BME280;44185;47.844;8.966;2023-07-13T09:49:47;96458.59;;;18.10;94.89
58385;BME280;44185;47.844;8.966;2023-07-13T09:52:15;96462.63;;;18.06;97.37
58385;BME280;44185;47.844;8.966;2023-07-13T09:54:45;96468.09;;;17.81;94.18
58385;BME280;44185;47.844;8.966;2023-07-13T09:57:13;96468.72;;;17.91;96.64
58385;BME280;44185;47.844;8.966;2023-07-13T09:59:40;96460.47;;;18.01;95.58
58385;BME280;44185;47.844;8.966;2023-07-13T10:02:29;96447.56;;;18.37;95.02
58385;BME280;44185;47.844;8.966;2023-07-13T10:04:56;96445.94;;;18.36;93.64
58385;BME280;44185;47.844;8.966;2023-07-13T10:07:22;96453.25;;;18.42;94.43
58385;BME280;44185;47.844;8.966;2023-07-13T10:09:52;96452.72;;;18.47;91.02
58385;BME280;44185;47.844;8.966;2023-07-13T10:12:17;96458.94;;;18.47;90.00
58385;BME280;44185;47.844;8.966;2023-07-13T10:14:43;96450.69;;;18.49;89.90
58385;BME280;44185;47.844;8.966;2023-07-13T10:17:13;96454.94;;;18.66;90.09
58385;BME280;44185;47.844;8.966;2023-07-13T10:19:41;96451.41;;;18.66;88.98
58385;BME280;44185;47.844;8.966;2023-07-13T10:22:14;96457.72;;;18.97;92.28
58385;BME280;44185;47.844;8.966;2023-07-13T10:24:42;96460.41;;;19.36;90.33
58385;BME280;44185;47.844;8.966;2023-07-13T10:27:14;96456.38;;;19.40;87.62
58385;BME280;44185;47.844;8.966;2023-07-13T10:29:45;96451.50;;;19.20;76.69
58385;BME280;44185;47.844;8.966;2023-07-13T10:32:12;96457.00;;;19.57;80.86
58385;BME280;44185;47.844;8.966;2023-07-13T10:34:40;96456.75;;;19.82;78.50
58385;BME280;44185;47.844;8.966;2023-07-13T10:37:07;96451.56;;;19.96;76.71
58385;BME280;44185;47.844;8.966;2023-07-13T10:39:41;96451.09;;;19.92;77.91
58385;BME280;44185;47.844;8.966;2023-07-13T10:42:09;96450.50;;;20.12;77.46
58385;BME280;44185;47.844;8.966;2023-07-13T10:44:37;96450.66;;;20.26;77.07
58385;BME280;44185;47.844;8.966;2023-07-13T10:47:08;96455.03;;;20.27;75.95
58385;BME280;44185;47.844;8.966;2023-07-13T10:49:40;96450.22;;;20.22;77.12
58385;BME280;44185;47.844;8.966;2023-07-13T10:52:42;96451.97;;;20.30;79.59
58385;BME280;44185;47.844;8.966;2023-07-13T10:55:34;96454.56;;;20.08;73.57
58385;BME280;44185;47.844;8.966;2023-07-13T10:58:00;96447.81;;;20.27;80.42
58385;BME280;44185;47.844;8.966;2023-07-13T11:00:26;96442.75;;;20.39;81.51
58385;BME280;44185;47.844;8.966;2023-07-13T11:02:56;96438.88;;;20.42;79.26
58385;BME280;44185;47.844;8.966;2023-07-13T11:05:28;96445.00;;;20.58;79.46
58385;BME280;44185;47.844;8.966;2023-07-13T11:08:02;96450.81;;;20.39;75.00
58385;BME280;44185;47.844;8.966;2023-07-13T11:10:49;96449.03;;;20.47;73.47
58385;BME280;44185;47.844;8.966;2023-07-13T11:13:38;96441.72;;;20.18;71.70
58385;BME280;44185;47.844;8.966;2023-07-13T11:16:13;96444.94;;;20.29;66.75
58385;BME280;44185;47.844;8.966;2023-07-13T11:18:38;96437.72;;;20.29;60.14
58385;BME280;44185;47.844;8.966;2023-07-13T11:21:16;96439.19;;;20.32;64.09
58385;BME280;44185;47.844;8.966;2023-07-13T11:23:43;96436.41;;;20.25;70.01
58385;BME280;44185;47.844;8.966;2023-07-13T11:26:39;96431.78;;;20.56;70.06
58385;BME280;44185;47.844;8.966;2023-07-13T11:29:08;96444.25;;;20.64;72.71
58385;BME280;44185;47.844;8.966;2023-07-13T11:31:34;96433.69;;;20.62;71.78
58385;BME280;44185;47.844;8.966;2023-07-13T11:34:00;96433.63;;;20.55;71.44
58385;BME280;44185;47.844;8.966;2023-07-13T11:36:32;96437.72;;;20.73;70.12
58385;BME280;44185;47.844;8.966;2023-07-13T11:39:04;96437.34;;;20.98;72.55
58385;BME280;44185;47.844;8.966;2023-07-13T11:41:42;96443.56;;;20.77;68.96
58385;BME280;44185;47.844;8.966;2023-07-13T11:44:13;96441.19;;;20.67;71.13
58385;BME280;44185;47.844;8.966;2023-07-13T11:46:44;96434.72;;;20.61;69.97
58385;BME280;44185;47.844;8.966;2023-07-13T11:49:15;96425.00;;;21.04;69.90
58385;BME280;44185;47.844;8.966;2023-07-13T11:51:43;96422.34;;;21.11;69.99
58385;BME280;44185;47.844;8.966;2023-07-13T11:54:26;96420.94;;;21.15;69.20
58385;BME280;44185;47.844;8.966;2023-07-13T11:56:52;96413.16;;;21.27;70.62
58385;BME280;44185;47.844;8.966;2023-07-13T11:59:18;96416.19;;;21.17;71.08
58385;BME280;44185;47.844;8.966;2023-07-13T12:01:46;96419.84;;;21.09;71.84
58385;BME280;44185;47.844;8.966;2023-07-13T12:04:21;96414.28;;;20.89;71.02
58385;BME280;44185;47.844;8.966;2023-07-13T12:06:54;96420.59;;;21.25;72.03
58385;BME280;44185;47.844;8.966;2023-07-13T12:09:20;96420.88;;;21.37;70.85
58385;BME280;44185;47.844;8.966;2023-07-13T12:11:45;96409.72;;;21.83;67.89
58385;BME280;44185;47.844;8.966;2023-07-13T12:14:14;96416.69;;;22.06;65.56
58385;BME280;44185;47.844;8.966;2023-07-13T12:16:39;96411.06;;;21.94;67.04
58385;BME280;44185;47.844;8.966;2023-07-13T12:19:16;96408.88;;;21.40;69.15
58385;BME280;44185;47.844;8.966;2023-07-13T12:21:43;96415.09;;;21.40;71.45
58385;BME280;44185;47.844;8.966;2023-07-13T12:24:15;96402.94;;;21.51;69.97
58385;BME280;44185;47.844;8.966;2023-07-13T12:26:41;96399.53;;;21.36;72.07
58385;BME280;44185;47.844;8.966;2023-07-13T12:29:07;96402.97;;;21.22;75.54
58385;BME280;44185;47.844;8.966;2023-07-13T12:31:35;96395.28;;;21.19;74.65
58385;BME280;44185;47.844;8.966;2023-07-13T12:34:03;96388.84;;;21.49;74.62
58385;BME280;44185;47.844;8.966;2023-07-13T12:36:33;96389.09;;;21.54;74.79
58385;BME280;44185;47.844;8.966;2023-07-13T12:39:01;96398.56;;;21.86;74.27
58385;BME280;44185;47.844;8.966;2023-07-13T12:41:30;96392.28;;;22.28;74.37
58385;BME280;44185;47.844;8.966;2023-07-13T12:43:55;96393.25;;;22.06;73.13
58385;BME280;44185;47.844;8.966;2023-07-13T12:46:24;96395.88;;;21.86;72.85
58385;BME280;44185;47.844;8.966;2023-07-13T12:48:51;96397.25;;;22.17;71.12
58385;BME280;44185;47.844;8.966;2023-07-13T12:51:21;96391.44;;;22.20;75.01
58385;BME280;44185;47.844;8.966;2023-07-13T12:53:49;96395.50;;;21.96;72.53
58385;BME280;44185;47.844;8.966;2023-07-13T12:56:18;96397.19;;;22.04;74.78